Time;durP1;ratioP1;P1;durP2;ratioP2;P2;SDS_P1;SDS_P2;PMS_P1;PMS_P2;Temp;Humidity;BMP_temperature;BMP_pressure;BME280_temperature;BME280_humidity;BME280_pressure;Samples;Min_cycle;Max_cycle;Signal;HPM_P1;HPM_P2
2023/08/19 00:01:29;;;;;;;13.73;6.65;;;24.60;99.90;;;;;;5034230;28;20171;-75
2023/08/19 00:03:55;;;;;;;9.30;6.72;;;24.60;99.90;;;;;;5034114;28;20554;-75
2023/08/19 00:06:41;;;;;;;6.38;5.63;;;24.60;99.90;;;;;;5034261;28;20203;-74
2023/08/19 00:09:08;;;;;;;6.75;6.07;;;24.60;99.90;;;;;;5034070;28;20555;-74
2023/08/19 00:11:38;;;;;;;7.38;6.32;;;24.60;99.90;;;;;;5032747;28;20517;-75
2023/08/19 00:14:05;;;;;;;9.38;5.40;;;24.60;99.90;;;;;;5033749;28;20196;-74
2023/08/19 00:16:32;;;;;;;6.20;5.70;;;24.50;99.90;;;;;;5034042;28;20168;-74
2023/08/19 00:18:58;;;;;;;9.75;6.30;;;24.50;99.90;;;;;;5033971;28;20180;-75
2023/08/19 00:21:24;;;;;;;8.88;7.28;;;24.50;99.90;;;;;;5033481;28;20543;-74
2023/08/19 00:23:50;;;;;;;7.15;5.93;;;24.40;99.90;;;;;;5033836;28;20711;-74
2023/08/19 00:26:16;;;;;;;8.65;6.40;;;24.30;99.90;;;;;;5033747;28;20210;-74
2023/08/19 00:28:41;;;;;;;7.65;6.95;;;24.30;99.90;;;;;;5033667;28;20218;-74
2023/08/19 00:31:07;;;;;;;6.68;6.15;;;24.20;99.90;;;;;;5032410;28;20470;-75
2023/08/19 00:33:34;;;;;;;9.10;6.18;;;24.20;99.90;;;;;;5033281;28;20224;-74
2023/08/19 00:35:59;;;;;;;7.88;6.28;;;24.10;99.90;;;;;;5033793;28;20574;-74
2023/08/19 00:38:25;;;;;;;10.23;5.95;;;24.10;99.90;;;;;;5033786;28;20255;-74
2023/08/19 00:40:51;;;;;;;7.75;5.95;;;24.00;99.90;;;;;;5033399;28;20632;-74
2023/08/19 00:43:16;;;;;;;6.53;5.85;;;24.00;99.90;;;;;;5033036;28;20298;-75
2023/08/19 00:45:49;;;;;;;8.15;5.97;;;24.00;99.90;;;;;;5033027;28;20665;-74
2023/08/19 00:48:18;;;;;;;7.47;6.32;;;23.90;99.90;;;;;;5033672;28;20561;-74
2023/08/19 00:50:45;;;;;;;11.40;6.30;;;23.90;99.90;;;;;;5033401;28;20174;-74
2023/08/19 00:53:13;;;;;;;10.90;6.85;;;23.80;99.90;;;;;;5033224;28;20211;-74
2023/08/19 00:55:39;;;;;;;9.38;6.88;;;23.80;99.90;;;;;;5033179;28;20175;-74
2023/08/19 00:58:07;;;;;;;7.35;6.65;;;23.70;99.90;;;;;;5033361;28;20187;-75
2023/08/19 01:00:34;;;;;;;7.57;6.05;;;23.70;99.90;;;;;;5033233;28;20490;-74
2023/08/19 01:03:00;;;;;;;10.10;6.72;;;23.60;99.90;;;;;;5031612;28;20183;-74
2023/08/19 01:05:49;;;;;;;8.98;6.32;;;23.60;99.90;;;;;;5032531;28;20207;-75
2023/08/19 01:08:22;;;;;;;9.38;6.50;;;23.50;99.90;;;;;;5032777;28;20199;-75
2023/08/19 01:10:56;;;;;;;7.43;6.15;;;23.50;99.90;;;;;;5033178;28;20167;-74
2023/08/19 01:13:30;;;;;;;7.10;6.40;;;23.40;99.90;;;;;;5032419;28;20222;-73
2023/08/19 01:16:04;;;;;;;7.90;6.35;;;23.40;99.90;;;;;;5032930;28;20656;-74
2023/08/19 01:18:30;;;;;;;9.30;6.47;;;23.30;99.90;;;;;;5033106;28;20208;-74
2023/08/19 01:20:56;;;;;;;7.75;6.28;;;23.30;99.90;;;;;;5032909;28;20172;-74
2023/08/19 01:23:41;;;;;;;8.38;6.85;;;23.20;99.90;;;;;;5032423;28;20284;-74
2023/08/19 01:26:07;;;;;;;8.20;7.10;;;23.20;99.90;;;;;;5031404;28;20431;-74
2023/08/19 01:28:32;;;;;;;10.60;6.53;;;23.10;99.90;;;;;;5031306;28;20167;-74
2023/08/19 01:30:59;;;;;;;7.85;6.50;;;23.10;99.90;;;;;;5030934;28;20178;-74
2023/08/19 01:33:25;;;;;;;7.53;6.28;;;23.00;99.90;;;;;;5031372;28;20226;-74
2023/08/19 01:35:59;;;;;;;7.20;6.50;;;23.00;99.90;;;;;;5032448;28;20215;-74
2023/08/19 01:38:43;;;;;;;6.47;5.88;;;23.00;99.90;;;;;;5032636;28;20625;-74
2023/08/19 01:41:11;;;;;;;7.30;6.60;;;22.90;99.90;;;;;;5031673;28;20191;-74
2023/08/19 01:43:37;;;;;;;15.18;7.10;;;22.90;99.90;;;;;;5030505;28;20222;-74
2023/08/19 01:46:03;;;;;;;7.57;6.40;;;22.80;99.90;;;;;;5031151;28;20233;-74
2023/08/19 01:48:28;;;;;;;11.20;6.97;;;22.80;99.90;;;;;;5031810;28;20263;-74
2023/08/19 01:50:54;;;;;;;10.65;7.18;;;22.80;99.90;;;;;;5032149;28;20179;-74
2023/08/19 01:53:20;;;;;;;9.68;7.10;;;22.80;99.90;;;;;;5031863;28;20274;-74
2023/08/19 01:55:45;;;;;;;11.15;8.15;;;22.70;99.90;;;;;;5032554;28;20210;-74
2023/08/19 01:58:11;;;;;;;7.53;6.72;;;22.70;99.90;;;;;;5032253;28;20167;-74
2023/08/19 02:00:36;;;;;;;6.28;5.68;;;22.70;99.90;;;;;;5032028;28;20241;-74
2023/08/19 02:03:02;;;;;;;6.43;5.82;;;22.60;99.90;;;;;;5031142;28;20187;-74
2023/08/19 02:05:28;;;;;;;13.57;6.20;;;22.60;99.90;;;;;;5031481;28;20210;-74
2023/08/19 02:07:53;;;;;;;8.90;6.07;;;22.60;99.90;;;;;;5031274;28;20175;-74
2023/08/19 02:10:19;;;;;;;7.72;5.60;;;22.60;99.90;;;;;;5031789;28;20182;-74
2023/08/19 02:12:45;;;;;;;14.60;6.10;;;22.60;99.90;;;;;;5031226;28;20176;-74
2023/08/19 02:15:10;;;;;;;8.50;5.80;;;22.60;99.90;;;;;;5031423;28;20254;-74
2023/08/19 02:17:36;;;;;;;6.40;5.80;;;22.60;99.90;;;;;;5031519;28;20481;-74
2023/08/19 02:20:03;;;;;;;7.40;6.20;;;22.60;99.90;;;;;;5031458;28;20210;-74
2023/08/19 02:22:28;;;;;;;9.68;6.20;;;22.60;99.90;;;;;;5031184;28;20172;-74
2023/08/19 02:24:54;;;;;;;7.10;5.93;;;22.60;99.90;;;;;;5031441;28;20210;-74
2023/08/19 02:27:19;;;;;;;8.10;6.05;;;22.60;99.90;;;;;;5031387;28;20175;-74
2023/08/19 02:29:45;;;;;;;8.48;6.15;;;22.70;99.90;;;;;;5031371;28;20171;-74
2023/08/19 02:32:11;;;;;;;6.35;5.60;;;22.70;99.90;;;;;;5031758;28;20221;-74
2023/08/19 02:34:36;;;;;;;8.10;5.88;;;22.70;99.90;;;;;;5031977;28;20504;-75
2023/08/19 02:37:02;;;;;;;6.47;5.88;;;22.80;99.90;;;;;;5031873;28;20236;-74
2023/08/19 02:39:28;;;;;;;6.55;5.35;;;22.80;99.90;;;;;;5031955;28;20172;-74
2023/08/19 02:41:53;;;;;;;7.50;6.00;;;22.80;99.90;;;;;;5031261;28;20623;-74
2023/08/19 02:44:19;;;;;;;6.97;5.20;;;22.90;99.90;;;;;;5031496;28;20265;-74
2023/08/19 02:46:45;;;;;;;7.57;5.72;;;22.90;99.90;;;;;;5031562;28;20207;-74
2023/08/19 02:49:10;;;;;;;7.05;5.25;;;22.90;99.90;;;;;;5030576;28;20266;-75
2023/08/19 02:51:36;;;;;;;5.80;5.20;;;23.00;99.90;;;;;;5031552;28;20170;-75
2023/08/19 02:54:01;;;;;;;6.40;5.10;;;23.00;99.90;;;;;;5031603;28;20195;-75
2023/08/19 02:56:27;;;;;;;9.45;5.80;;;23.00;99.90;;;;;;5031476;28;20304;-75
2023/08/19 02:58:52;;;;;;;7.55;5.85;;;23.00;99.90;;;;;;5031689;28;20171;-75
2023/08/19 03:01:18;;;;;;;8.48;5.45;;;23.00;99.90;;;;;;5031395;28;20178;-75
2023/08/19 03:03:44;;;;;;;6.68;5.00;;;23.00;99.90;;;;;;5031161;28;20199;-75
2023/08/19 03:06:10;;;;;;;5.95;4.88;;;23.00;99.90;;;;;;5031429;28;20229;-75
2023/08/19 03:08:36;;;;;;;8.13;5.32;;;23.00;99.90;;;;;;5031515;28;20206;-75
2023/08/19 03:11:02;;;;;;;6.28;4.88;;;23.00;99.90;;;;;;5031551;28;20254;-75
2023/08/19 03:13:28;;;;;;;8.48;5.60;;;23.00;99.90;;;;;;5031063;28;20203;-75
2023/08/19 03:15:58;;;;;;;8.20;5.30;;;23.00;99.90;;;;;;5030292;28;20678;-75
2023/08/19 03:18:25;;;;;;;5.75;5.07;;;23.00;99.90;;;;;;5031506;28;20222;-75
2023/08/19 03:20:58;;;;;;;5.32;4.82;;;23.00;99.90;;;;;;5031723;28;20232;-76
2023/08/19 03:23:25;;;;;;;5.70;5.20;;;22.90;99.90;;;;;;5031052;28;20199;-75
2023/08/19 03:25:51;;;;;;;8.18;4.70;;;22.90;99.90;;;;;;5031342;28;20211;-75
2023/08/19 03:28:17;;;;;;;5.78;5.25;;;22.90;99.90;;;;;;5031366;28;20540;-75
2023/08/19 03:30:42;;;;;;;8.18;4.88;;;22.90;99.90;;;;;;5033898;28;20179;-75
2023/08/19 03:33:08;;;;;;;5.13;4.63;;;22.90;99.90;;;;;;5033914;28;20714;-75
2023/08/19 03:35:34;;;;;;;5.93;4.60;;;22.90;99.90;;;;;;5035316;28;20182;-75
2023/08/19 03:38:00;;;;;;;6.35;5.10;;;23.00;99.90;;;;;;5035400;28;20179;-75
2023/08/19 03:40:26;;;;;;;5.10;4.60;;;23.00;99.90;;;;;;5035361;28;20176;-76
2023/08/19 03:42:51;;;;;;;6.07;5.47;;;23.00;99.90;;;;;;5034891;28;20181;-75
2023/08/19 03:45:17;;;;;;;8.25;5.20;;;23.00;99.90;;;;;;5035201;28;20209;-75
2023/08/19 03:47:42;;;;;;;5.63;4.65;;;22.90;99.90;;;;;;5034912;28;20209;-75
2023/08/19 03:50:08;;;;;;;6.07;4.97;;;22.90;99.90;;;;;;5035190;28;20255;-75
2023/08/19 03:52:34;;;;;;;5.22;4.40;;;22.90;99.90;;;;;;5033724;28;20167;-75
2023/08/19 03:54:59;;;;;;;8.07;5.20;;;23.00;99.90;;;;;;5034998;28;20653;-75
2023/08/19 03:57:25;;;;;;;9.55;5.13;;;22.90;99.90;;;;;;5034808;28;20210;-76
2023/08/19 03:59:51;;;;;;;6.05;4.97;;;22.90;99.90;;;;;;5033890;28;20217;-75
2023/08/19 04:02:17;;;;;;;6.57;5.88;;;22.90;99.90;;;;;;5035000;28;20168;-75
2023/08/19 04:05:03;;;;;;;6.20;5.57;;;22.90;99.90;;;;;;5034104;28;20230;-76
2023/08/19 04:07:29;;;;;;;5.57;5.07;;;22.80;99.90;;;;;;5039113;28;20590;-75
2023/08/19 04:09:55;;;;;;;6.60;4.80;;;22.80;99.90;;;;;;5037802;28;20575;-75
2023/08/19 04:12:25;;;;;;;6.82;5.47;;;22.80;99.90;;;;;;5034367;28;20184;-75
2023/08/19 04:14:51;;;;;;;9.90;5.53;;;22.80;99.90;;;;;;5034758;28;20199;-75
2023/08/19 04:17:16;;;;;;;6.53;4.78;;;22.80;99.90;;;;;;5034827;28;20517;-75
2023/08/19 04:19:43;;;;;;;6.00;5.50;;;22.80;99.90;;;;;;5034426;28;20175;-75
2023/08/19 04:22:14;;;;;;;6.05;5.28;;;22.80;99.90;;;;;;5034487;28;20541;-75
2023/08/19 04:24:39;;;;;;;8.95;5.03;;;22.70;99.90;;;;;;5034395;28;20648;-75
2023/08/19 04:27:05;;;;;;;6.45;5.00;;;22.70;99.90;;;;;;5034348;28;20229;-75
2023/08/19 04:29:34;;;;;;;7.80;4.57;;;22.70;99.90;;;;;;5034295;28;20172;-75
2023/08/19 04:32:03;;;;;;;5.90;4.63;;;22.70;99.90;;;;;;5032830;28;20204;-75
2023/08/19 04:34:30;;;;;;;6.22;5.15;;;22.70;99.90;;;;;;5034399;28;20198;-75
2023/08/19 04:36:55;;;;;;;4.32;3.97;;;22.70;99.90;;;;;;5034439;28;20171;-76
2023/08/19 04:39:22;;;;;;;9.43;4.85;;;22.70;99.90;;;;;;5034870;28;20182;-75
2023/08/19 04:41:48;;;;;;;6.82;4.70;;;22.70;99.90;;;;;;5033758;28;20314;-75
2023/08/19 04:44:14;;;;;;;5.07;4.57;;;22.70;99.90;;;;;;5040423;22;20244;-73
2023/08/19 04:46:40;;;;;;;8.18;4.60;;;22.70;99.90;;;;;;5013861;28;20710;-73
2023/08/19 04:49:05;;;;;;;8.45;4.80;;;22.70;99.90;;;;;;5014276;28;20208;-73
2023/08/19 04:51:32;;;;;;;6.68;5.40;;;22.70;99.90;;;;;;5013621;28;20521;-73
2023/08/19 04:53:58;;;;;;;5.30;4.90;;;22.70;99.90;;;;;;5013564;28;20199;-73
2023/08/19 04:56:23;;;;;;;6.57;5.07;;;22.70;99.90;;;;;;5013953;28;20172;-73
2023/08/19 04:58:49;;;;;;;8.02;4.85;;;22.70;99.90;;;;;;5013852;28;20917;-73
2023/08/19 05:01:14;;;;;;;5.10;4.60;;;22.70;99.90;;;;;;5013553;28;20637;-73
2023/08/19 05:03:40;;;;;;;6.45;4.95;;;22.80;99.90;;;;;;5013448;28;20620;-73
2023/08/19 05:06:06;;;;;;;5.55;5.03;;;22.90;99.90;;;;;;5013904;28;20204;-73
2023/08/19 05:08:31;;;;;;;5.18;4.60;;;22.90;99.90;;;;;;5012425;28;20700;-73
2023/08/19 05:10:57;;;;;;;7.85;5.38;;;23.00;99.90;;;;;;5013797;28;20176;-73
2023/08/19 05:13:22;;;;;;;6.60;4.60;;;23.00;99.90;;;;;;5013390;28;20169;-73
2023/08/19 05:15:48;;;;;;;7.25;4.88;;;23.10;99.90;;;;;;5013514;28;20176;-73
2023/08/19 05:18:14;;;;;;;7.85;5.70;;;23.10;99.90;;;;;;5013557;28;20566;-73
2023/08/19 05:20:39;;;;;;;7.05;4.70;;;23.20;99.90;;;;;;5012179;28;20267;-73
2023/08/19 05:23:05;;;;;;;6.03;4.45;;;23.30;99.90;;;;;;5011567;28;20180;-73
2023/08/19 05:25:30;;;;;;;7.40;4.57;;;23.30;99.90;;;;;;5013493;28;20725;-73
2023/08/19 05:27:57;;;;;;;8.95;5.07;;;23.40;99.90;;;;;;5013157;28;20176;-73
2023/08/19 05:30:23;;;;;;;5.53;4.22;;;23.50;99.90;;;;;;5013387;28;20497;-73
2023/08/19 05:32:49;;;;;;;5.40;4.07;;;23.50;99.90;;;;;;5012869;28;20176;-73
2023/08/19 05:35:14;;;;;;;5.40;4.22;;;23.50;99.90;;;;;;5013392;28;20200;-73
2023/08/19 05:37:40;;;;;;;6.22;4.65;;;23.60;99.90;;;;;;5013130;28;20215;-73
2023/08/19 05:40:06;;;;;;;7.20;4.20;;;23.60;99.90;;;;;;5013282;28;20226;-73
2023/08/19 05:42:32;;;;;;;4.10;3.78;;;23.60;99.90;;;;;;5011084;28;20187;-73
2023/08/19 05:44:57;;;;;;;8.57;4.28;;;23.60;99.90;;;;;;5012753;28;20212;-73
2023/08/19 05:47:23;;;;;;;5.15;4.43;;;23.60;99.90;;;;;;5011755;28;20164;-73
2023/08/19 05:49:49;;;;;;;5.63;4.57;;;23.60;99.90;;;;;;5012547;28;20747;-73
2023/08/19 05:52:14;;;;;;;6.93;4.28;;;23.70;99.90;;;;;;5010889;28;20172;-73
2023/08/19 05:54:40;;;;;;;4.70;4.30;;;23.70;99.90;;;;;;5012817;28;20279;-73
2023/08/19 05:57:06;;;;;;;7.38;4.68;;;23.80;99.90;;;;;;5011627;28;20172;-73
2023/08/19 05:59:32;;;;;;;5.03;4.63;;;23.80;99.90;;;;;;5012613;28;20247;-73
2023/08/19 06:01:58;;;;;;;5.82;3.95;;;23.90;99.90;;;;;;5012297;28;20638;-73
2023/08/19 06:04:24;;;;;;;4.60;4.13;;;23.90;99.90;;;;;;5012696;28;20180;-73
2023/08/19 06:06:49;;;;;;;6.63;4.00;;;24.00;99.90;;;;;;5012541;28;20208;-74
2023/08/19 06:09:15;;;;;;;6.07;4.57;;;24.10;99.90;;;;;;5012368;28;20234;-73
2023/08/19 06:12:07;;;;;;;6.38;4.30;;;24.10;99.90;;;;;;5010775;28;20653;-73
2023/08/19 06:14:33;;;;;;;4.95;4.45;;;24.20;99.90;;;;;;5004529;28;20622;-73
2023/08/19 06:16:58;;;;;;;8.45;4.85;;;24.20;99.90;;;;;;5012420;28;20176;-73
2023/08/19 06:19:24;;;;;;;9.38;4.78;;;24.30;99.90;;;;;;5012309;28;20172;-74
2023/08/19 06:21:50;;;;;;;4.82;4.18;;;24.40;99.90;;;;;;5011892;28;20172;-73
2023/08/19 06:24:16;;;;;;;5.43;4.50;;;24.40;99.90;;;;;;5012392;28;20188;-73
2023/08/19 06:26:41;;;;;;;5.60;4.63;;;24.50;99.90;;;;;;5012268;28;20215;-73
2023/08/19 06:29:07;;;;;;;5.88;4.07;;;24.60;99.90;;;;;;5012473;28;20168;-73
2023/08/19 06:31:33;;;;;;;5.63;4.18;;;24.70;99.90;;;;;;5011758;28;20645;-73
2023/08/19 06:33:59;;;;;;;5.18;4.65;;;24.80;99.90;;;;;;5012152;28;20188;-74
2023/08/19 06:36:28;;;;;;;5.63;4.68;;;24.80;99.90;;;;;;5010594;28;20182;-73
2023/08/19 06:39:07;;;;;;;8.80;4.40;;;24.90;99.90;;;;;;5012274;28;20172;-73
2023/08/19 06:41:39;;;;;;;5.63;4.32;;;24.90;99.90;;;;;;5011609;28;20226;-73
2023/08/19 06:44:07;;;;;;;6.15;4.63;;;25.00;99.90;;;;;;5011890;28;20218;-73
2023/08/19 06:46:33;;;;;;;6.43;4.90;;;25.00;99.90;;;;;;5011538;28;20270;-73
2023/08/19 06:48:59;;;;;;;6.80;4.85;;;25.10;99.90;;;;;;5012123;28;20575;-73
2023/08/19 06:51:27;;;;;;;4.57;4.18;;;25.10;99.90;;;;;;5011557;28;20370;-73
2023/08/19 06:53:53;;;;;;;4.63;4.32;;;25.10;99.90;;;;;;5011728;28;20855;-73
2023/08/19 06:56:25;;;;;;;8.45;5.57;;;25.20;99.90;;;;;;5010568;28;20188;-73
2023/08/19 06:59:18;;;;;;;7.95;5.47;;;25.30;99.90;;;;;;5012298;28;20176;-73
2023/08/19 07:01:50;;;;;;;5.55;4.90;;;25.40;99.90;;;;;;5010222;28;20540;-72
2023/08/19 07:04:20;;;;;;;5.03;4.30;;;25.60;99.90;;;;;;5010909;28;20192;-73
2023/08/19 07:06:47;;;;;;;5.10;3.80;;;25.70;99.90;;;;;;5011741;28;20208;-73
2023/08/19 07:09:14;;;;;;;8.38;4.50;;;25.80;99.90;;;;;;5011781;28;20484;-73
2023/08/19 07:11:40;;;;;;;6.60;4.30;;;25.90;99.90;;;;;;5011179;28;20658;-73
2023/08/19 07:14:06;;;;;;;7.15;5.25;;;26.00;99.90;;;;;;5011494;28;20267;-73
2023/08/19 07:16:33;;;;;;;5.22;3.90;;;26.10;99.90;;;;;;5011461;28;20712;-73
2023/08/19 07:19:03;;;;;;;5.93;4.20;;;26.30;99.90;;;;;;5011615;28;20264;-73
2023/08/19 07:21:32;;;;;;;6.22;4.72;;;26.40;99.90;;;;;;5010864;28;20187;-72
2023/08/19 07:23:59;;;;;;;5.53;3.80;;;26.50;99.90;;;;;;5009258;28;20672;-73
2023/08/19 07:26:26;;;;;;;5.70;4.28;;;26.50;99.90;;;;;;5010983;28;20212;-72
2023/08/19 07:28:52;;;;;;;7.18;4.35;;;26.40;99.90;;;;;;5010801;28;20196;-72
2023/08/19 07:31:22;;;;;;;5.63;4.88;;;26.40;99.90;;;;;;5010765;28;20677;-72
2023/08/19 07:33:48;;;;;;;5.75;4.68;;;26.30;99.90;;;;;;5009337;28;20243;-72
2023/08/19 07:36:13;;;;;;;7.68;3.80;;;26.40;99.90;;;;;;5011474;28;20183;-72
2023/08/19 07:38:39;;;;;;;4.65;4.10;;;26.50;99.90;;;;;;5011356;28;20180;-72
2023/08/19 07:41:05;;;;;;;4.03;3.63;;;26.80;99.90;;;;;;5011171;28;20183;-72
2023/08/19 07:43:31;;;;;;;6.95;3.75;;;27.20;99.90;;;;;;5010228;28;20191;-74
2023/08/19 07:45:56;;;;;;;11.80;4.22;;;27.50;99.90;;;;;;5010602;28;20200;-73
2023/08/19 07:48:22;;;;;;;3.92;3.63;;;28.00;99.90;;;;;;5010629;28;20215;-73
2023/08/19 07:50:47;;;;;;;3.75;3.42;;;28.50;99.90;;;;;;5010159;28;20179;-73
2023/08/19 07:53:13;;;;;;;6.45;3.65;;;28.80;99.90;;;;;;5011070;28;20535;-73
2023/08/19 07:55:39;;;;;;;5.28;3.53;;;28.90;99.90;;;;;;5011083;28;20185;-72
2023/08/19 07:58:05;;;;;;;5.82;4.07;;;28.90;99.90;;;;;;5012041;28;20273;-73
2023/08/19 08:00:30;;;;;;;6.85;3.80;;;28.70;99.90;;;;;;5009607;28;20180;-73
2023/08/19 08:02:56;;;;;;;6.45;3.67;;;28.60;99.90;;;;;;5011381;28;20203;-72
2023/08/19 08:05:21;;;;;;;8.43;4.00;;;28.40;99.90;;;;;;5011736;28;20200;-73
2023/08/19 08:07:47;;;;;;;4.25;3.78;;;28.30;99.90;;;;;;5010620;28;20177;-73
2023/08/19 08:10:12;;;;;;;5.05;3.65;;;28.30;99.90;;;;;;5010849;28;20176;-72
2023/08/19 08:12:38;;;;;;;8.43;4.00;;;28.20;99.90;;;;;;5010700;28;20595;-72
2023/08/19 08:15:04;;;;;;;9.27;4.10;;;28.10;99.90;;;;;;5010421;28;20196;-72
2023/08/19 08:17:30;;;;;;;4.22;3.92;;;28.10;99.90;;;;;;5014885;28;20211;-72
2023/08/19 08:19:57;;;;;;;8.82;4.35;;;28.00;99.90;;;;;;5014337;28;20200;-72
2023/08/19 08:22:23;;;;;;;4.60;3.67;;;27.80;99.90;;;;;;5014376;28;20175;-72
2023/08/19 08:24:49;;;;;;;4.32;3.92;;;27.80;99.90;;;;;;5011223;28;20207;-72
2023/08/19 08:27:15;;;;;;;5.70;3.72;;;27.80;99.90;;;;;;4994767;28;20256;-72
2023/08/19 08:29:41;;;;;;;4.50;4.10;;;27.80;99.90;;;;;;4994862;28;20256;-73
2023/08/19 08:32:06;;;;;;;5.03;4.60;;;27.70;99.90;;;;;;4994547;28;20714;-73
2023/08/19 08:34:32;;;;;;;6.45;4.55;;;27.80;99.90;;;;;;4994683;28;20189;-73
2023/08/19 08:36:58;;;;;;;5.70;4.53;;;27.90;99.90;;;;;;4994681;28;20530;-73
2023/08/19 08:39:23;;;;;;;7.82;4.40;;;28.10;99.90;;;;;;4999625;28;20187;-73
2023/08/19 08:41:50;;;;;;;5.32;3.78;;;28.20;99.90;;;;;;5013631;28;20187;-72
2023/08/19 08:44:16;;;;;;;4.72;4.03;;;28.40;99.90;;;;;;5013816;28;20207;-72
2023/08/19 08:46:44;;;;;;;4.30;3.90;;;28.50;99.90;;;;;;5013850;28;20281;-72
2023/08/19 08:49:11;;;;;;;5.22;4.63;;;28.70;99.90;;;;;;5014232;28;20175;-72
2023/08/19 08:51:38;;;;;;;6.10;5.60;;;28.90;99.90;;;;;;5013745;28;20180;-72
2023/08/19 08:54:05;;;;;;;8.35;4.10;;;29.00;99.90;;;;;;5013800;28;20192;-72
2023/08/19 08:56:31;;;;;;;6.88;4.15;;;29.20;99.90;;;;;;5013983;28;20168;-72
2023/08/19 08:58:58;;;;;;;6.50;4.25;;;29.30;99.90;;;;;;5011435;28;20184;-72
2023/08/19 09:01:24;;;;;;;8.73;4.20;;;29.40;99.90;;;;;;5014037;28;20195;-72
2023/08/19 09:03:52;;;;;;;6.70;4.50;;;29.60;99.90;;;;;;5013522;28;20658;-72
2023/08/19 09:06:18;;;;;;;6.50;4.20;;;29.80;99.90;;;;;;5014030;28;20211;-72
2023/08/19 09:08:57;;;;;;;5.05;3.78;;;30.00;99.90;;;;;;5013482;28;20188;-73
2023/08/19 09:11:27;;;;;;;5.65;4.75;;;30.30;99.90;;;;;;5013380;28;20176;-73
2023/08/19 09:14:21;;;;;;;8.00;5.85;;;30.50;99.90;;;;;;5013361;28;20196;-73
2023/08/19 09:16:47;;;;;;;4.93;4.45;;;30.70;99.90;;;;;;5013408;28;20263;-73
2023/08/19 09:19:13;;;;;;;5.32;4.20;;;30.90;99.90;;;;;;5013425;28;20303;-73
2023/08/19 09:21:39;;;;;;;6.78;5.35;;;31.10;99.90;;;;;;5011604;28;20183;-74
2023/08/19 09:24:05;;;;;;;4.32;3.92;;;31.30;99.90;;;;;;5013182;28;20200;-74
2023/08/19 09:26:30;;;;;;;7.35;4.05;;;31.50;99.90;;;;;;5012982;28;20291;-74
2023/08/19 09:28:57;;;;;;;7.63;5.45;;;31.90;99.90;;;;;;5011122;28;20168;-73
2023/08/19 09:31:24;;;;;;;9.95;8.43;;;32.20;99.90;;;;;;5009550;28;20172;-74
2023/08/19 09:33:52;;;;;;;7.95;7.45;;;32.40;99.90;;;;;;5012835;28;20203;-74
2023/08/19 09:36:27;;;;;;;7.10;4.35;;;32.40;99.90;;;;;;5013294;28;20179;-74
2023/08/19 09:38:57;;;;;;;4.07;3.63;;;32.50;99.90;;;;;;5012819;28;20175;-73
2023/08/19 09:41:33;;;;;;;5.32;3.72;;;32.50;99.90;;;;;;5012785;28;20168;-74
2023/08/19 09:43:59;;;;;;;8.02;4.85;;;32.40;99.90;;;;;;5012636;28;20246;-75
2023/08/19 09:46:32;;;;;;;5.90;4.00;;;32.40;99.90;;;;;;5011364;28;20677;-74
2023/08/19 09:48:58;;;;;;;10.85;10.00;;;32.90;99.90;;;;;;5013072;28;20648;-75
2023/08/19 09:51:25;;;;;;;6.45;4.07;;;33.60;99.90;;;;;;5012552;28;20210;-74
2023/08/19 09:53:50;;;;;;;4.68;4.20;;;34.20;99.90;;;;;;5011907;28;20204;-74
2023/08/19 09:56:21;;;;;;;6.22;4.28;;;34.60;99.90;;;;;;5012898;28;20177;-74
2023/08/19 09:58:49;;;;;;;7.65;4.53;;;34.80;99.90;;;;;;5012674;28;20705;-73
2023/08/19 10:01:14;;;;;;;33.03;29.20;;;35.10;99.90;;;;;;5012437;28;20183;-74
2023/08/19 10:03:40;;;;;;;6.50;4.90;;;35.40;99.90;;;;;;5010213;28;20767;-73
2023/08/19 10:06:07;;;;;;;4.70;4.30;;;35.60;99.90;;;;;;5012364;28;20572;-74
2023/08/19 10:08:37;;;;;;;4.75;4.35;;;35.70;99.90;;;;;;5010985;28;20180;-74
2023/08/19 10:11:05;;;;;;;6.38;4.78;;;35.80;99.90;;;;;;5012646;28;20179;-74
2023/08/19 10:13:33;;;;;;;4.35;3.95;;;36.00;99.90;;;;;;5011421;28;20184;-73
2023/08/19 10:16:02;;;;;;;6.85;6.05;;;36.00;99.90;;;;;;5012097;28;20210;-74
2023/08/19 10:18:32;;;;;;;5.85;4.32;;;36.00;99.90;;;;;;5012502;28;20176;-74
2023/08/19 10:21:04;;;;;;;11.73;10.82;;;36.00;99.90;;;;;;5012296;28;20637;-73
2023/08/19 10:23:31;;;;;;;5.25;3.90;;;36.30;99.90;;;;;;5010719;28;20215;-73
2023/08/19 10:25:57;;;;;;;7.50;6.30;;;36.50;99.90;;;;;;5011978;28;20669;-74
2023/08/19 10:28:28;;;;;;;5.88;4.53;;;36.90;99.90;;;;;;5011152;28;20584;-74
2023/08/19 10:31:10;;;;;;;8.65;5.10;;;37.00;99.90;;;;;;5012392;28;20171;-73
2023/08/19 10:33:41;;;;;;;10.77;9.18;;;36.50;99.90;;;;;;5011552;28;20226;-76
2023/08/19 10:36:08;;;;;;;5.97;5.13;;;36.40;99.90;;;;;;5011807;28;20180;-75
2023/08/19 10:38:44;;;;;;;6.65;6.05;;;36.50;99.90;;;;;;5012073;28;20245;-73
2023/08/19 10:41:25;;;;;;;10.45;9.65;;;36.50;99.90;;;;;;5012086;28;20691;-74
2023/08/19 10:44:02;;;;;;;12.32;7.63;;;36.20;99.90;;;;;;5010992;28;20341;-75
2023/08/19 10:46:38;;;;;;;7.65;7.05;;;36.00;99.90;;;;;;5010891;28;20204;-73
2023/08/19 10:49:17;;;;;;;5.43;4.03;;;35.50;99.90;;;;;;5012260;28;20264;-74
2023/08/19 10:52:05;;;;;;;4.63;4.10;;;35.40;99.90;;;;;;5012180;28;20693;-74
2023/08/19 10:54:43;;;;;;;7.88;5.75;;;35.00;99.90;;;;;;5012993;28;20188;-74
2023/08/19 10:57:08;;;;;;;7.93;6.70;;;34.80;99.90;;;;;;5013121;28;20223;-75
2023/08/19 10:59:36;;;;;;;5.30;4.43;;;34.50;99.90;;;;;;5012898;28;20176;-74
2023/08/19 11:02:02;;;;;;;12.63;5.15;;;34.20;99.90;;;;;;5012667;28;20175;-76
2023/08/19 11:04:27;;;;;;;5.75;4.68;;;34.10;99.90;;;;;;5012793;28;20208;-74
2023/08/19 11:06:53;;;;;;;6.70;6.10;;;34.20;99.90;;;;;;5011704;28;20208;-75
2023/08/19 11:09:22;;;;;;;8.02;6.70;;;34.30;99.90;;;;;;5012905;28;20259;-76
2023/08/19 11:11:48;;;;;;;12.00;5.90;;;34.10;99.90;;;;;;5012568;28;20176;-74
2023/08/19 11:14:17;;;;;;;6.18;5.13;;;33.70;99.90;;;;;;5012833;28;20226;-74
2023/08/19 11:16:56;;;;;;;8.30;5.22;;;33.70;99.90;;;;;;5011851;28;20183;-75
2023/08/19 11:19:22;;;;;;;5.30;4.63;;;33.70;99.90;;;;;;5011455;28;20603;-75
2023/08/19 11:21:49;;;;;;;7.53;5.50;;;33.60;99.90;;;;;;5009178;28;20278;-74
2023/08/19 11:24:15;;;;;;;6.30;5.45;;;33.70;99.90;;;;;;5009950;28;20319;-75
2023/08/19 11:26:45;;;;;;;9.35;5.20;;;33.50;99.90;;;;;;5011139;28;20744;-72
2023/08/19 11:29:11;;;;;;;6.55;5.35;;;33.20;99.90;;;;;;5009919;28;20179;-73
2023/08/19 11:31:41;;;;;;;5.75;5.18;;;33.00;99.90;;;;;;5010824;28;20223;-74
2023/08/19 11:34:08;;;;;;;4.90;4.43;;;32.80;99.90;;;;;;5010854;28;20211;-75
2023/08/19 11:36:38;;;;;;;6.63;6.03;;;32.80;99.90;;;;;;5010718;28;20211;-74
2023/08/19 11:39:05;;;;;;;10.35;7.60;;;32.60;99.90;;;;;;5011385;28;20176;-75
2023/08/19 11:41:31;;;;;;;9.27;8.63;;;32.60;99.90;;;;;;5010827;28;20176;-74
2023/08/19 11:43:58;;;;;;;7.07;6.53;;;32.70;99.90;;;;;;5009488;28;20253;-75
2023/08/19 11:46:30;;;;;;;10.52;9.48;;;32.80;99.90;;;;;;5011211;28;20223;-75
2023/08/19 11:48:57;;;;;;;10.63;9.60;;;32.60;99.90;;;;;;5009909;28;20180;-75
2023/08/19 11:51:25;;;;;;;8.45;6.97;;;32.50;99.90;;;;;;5011666;28;20642;-75
2023/08/19 11:53:53;;;;;;;10.10;9.13;;;32.20;99.90;;;;;;5014462;28;20298;-74
2023/08/19 11:56:20;;;;;;;9.13;8.27;;;31.90;99.90;;;;;;5013888;28;20180;-74
2023/08/19 11:58:54;;;;;;;7.97;7.13;;;31.40;99.90;;;;;;5015022;28;20259;-73
2023/08/19 12:01:21;;;;;;;7.40;6.80;;;31.10;99.90;;;;;;5014820;28;20207;-74
2023/08/19 12:03:52;;;;;;;10.77;6.38;;;30.90;99.90;;;;;;5014599;28;20192;-74
2023/08/19 12:06:18;;;;;;;6.82;6.13;;;30.80;99.90;;;;;;5014935;28;20200;-74
2023/08/19 12:08:45;;;;;;;6.43;5.93;;;30.90;99.90;;;;;;5014377;28;20183;-75
2023/08/19 12:11:12;;;;;;;10.10;7.22;;;30.70;99.90;;;;;;5014941;28;20255;-75
2023/08/19 12:13:38;;;;;;;15.77;14.85;;;30.40;99.90;;;;;;5012900;28;20204;-75
2023/08/19 12:16:05;;;;;;;29.27;27.60;;;30.30;99.90;;;;;;4999926;28;20177;-74
2023/08/19 12:18:35;;;;;;;9.98;9.07;;;30.10;99.90;;;;;;5014472;28;20192;-74
2023/08/19 12:21:03;;;;;;;14.40;11.77;;;29.80;99.90;;;;;;5014829;28;20194;-76
2023/08/19 12:23:29;;;;;;;8.68;7.95;;;29.70;99.90;;;;;;5012623;28;20693;-74
2023/08/19 12:25:57;;;;;;;11.25;7.13;;;29.60;99.90;;;;;;5012715;28;20215;-74
2023/08/19 12:28:24;;;;;;;7.95;7.25;;;29.40;99.90;;;;;;5014066;28;20551;-75
2023/08/19 12:30:50;;;;;;;7.40;6.75;;;29.40;99.90;;;;;;5014304;28;20365;-73
2023/08/19 12:33:17;;;;;;;10.57;8.10;;;29.30;99.90;;;;;;5012813;28;20199;-72
2023/08/19 12:35:44;;;;;;;9.10;8.02;;;29.30;99.90;;;;;;5014396;28;20685;-74
2023/08/19 12:38:13;;;;;;;10.57;8.18;;;29.20;99.90;;;;;;5013895;28;20242;-74
2023/08/19 12:40:39;;;;;;;9.48;8.57;;;29.30;99.90;;;;;;5014213;28;20214;-75
2023/08/19 12:43:05;;;;;;;8.80;7.97;;;29.30;99.90;;;;;;5013939;28;20188;-74
2023/08/19 12:45:30;;;;;;;12.38;8.52;;;29.30;99.90;;;;;;5013786;28;20328;-73
2023/08/19 12:47:56;;;;;;;7.78;7.05;;;28.90;99.90;;;;;;5014271;28;20235;-73